Terminal Aerodrome Forecast
Issued by NWS Houston/Galveston TX

Home | Current Version | Previous Version | Text Only | Print | Product List | Glossary On
Versions: 1 2 3 4 5 6 7 8 9 10 11 12 13 14 15 16 17 18 19 20 21 22 23 24 25 26 27 28
000
FTUS44 KHGX 201132
TAFHOU
TAF
KHOU 201132Z 2012/2112 07003KT 2SM BR VCSH OVC004
      TEMPO 2012/2014 1/4SM FG VV002
     FM201500 18007KT 6SM BR VCSH BKN007 OVC011
     FM201800 18010G19KT P6SM VCSH SCT008 OVC015
     FM210000 16008KT 6SM BR VCSH OVC007
     FM210400 16008KT 3SM BR VCSH OVC005=

USA.gov is the U.S. government's official web portal to all federal, state and local government web resources and services.